South Streator, Illinois
Current Conditions -  °F | °C
As of 7:35 AM on Wednesday 22 Oct 2014 (Local Time) from KPNT Reporting Station
Haze Haze  
Wind Chill: 30°   Ceiling: Unl
Heat Index: 30°   Visibility: 2mi
Dew Point: 29°   Wind: 0mph
Humidity: 99%   Direction: NA
Pressure: 30.34"   Gusts: NA
Location:  41.1182°N, 88.8294°W
Report Text: KPNT 221235Z AUTO 00000KT 2SM BR CLR M01/M01 A3034 RMK AO2 T10121014
Loading
Personal Weather Stations






























Interactive Weather Map
Tropical Storm Tracking
New forecast layout! Learn more

10-Day Weather Forecast

Advertisements
Track Severe Weather on mobile